Hauptseite
METAR-TAF:

METAR-TAF

Flughäfen :

Flughafen Bilbao

Bilbao, Spanien

Breite: 43-18N, Länge: 002-56W, Höhe: 42 m

Beobachtung

Neuester Wetterbericht von vor 24 Minuten, um 05:30 UTC
Wind 1 kt aus West/Nordwest
Temperatur 8°C
Luftfeuchtigkeit 93%
Luftdruck 1006 hPa
Sichtweite 10 km oder mehr
Aufgelockert bewölkt in der Höhe von 4500 ft

METAR: LEBB 190530Z 30001KT 9999 SCT045 08/07 Q1006 NOSIG

Zeit: 06:54 (05:54 UTC)

Prognose

Neuester Wetterbericht von vor 54 Minuten, um 05:00 UTC
Gültige Prognose vom 19 um 06 UTC bis 20 um 06 UTC
Wind 6 kt aus Ost
Sichtweite 10 km oder mehr
Aufgelockert bewölkt in der Höhe von 4000 ft
Wahrscheinlichkeit 30% :
Zeitweise
vom 20 um 00 UTC bis 20 um 06 UTC
Durchbrochene Bewölkung in der Höhe von 1000 ft
Regen

TAF: LEBB 190500Z 1906/2006 09006KT 9999 SCT040 TX16/1913Z TN07/1906Z PROB30 TEMPO 2000/2006 RA BKN010

Wetterbeobachtungen und Prognosen von mehr als 4000 Flughäfen (METAR und TAF Bericht).

Die verfügbaren Stationen werden durch gelbe und rote Markierungen auf der Karte dargestellt.

Führen Sie die Maus auf sie, um den Namen der Station zu sehen.

Darauf klicken, um die Beobachtung von Wetterbeobachtungen und Prognosen zu sehen.

Um die Karte zu ändern : klicken Sie auf den grünen Tasten mit einem schwarzen Kreuz Zum Vergrößern, auf den grünen Button mit einem Gedankenstrich zu verkleinern, oder auf die grünen Pfeile für benachbarte Karten.


METAR-TAF: